createdAt,value
2018-05-04T00:00:38.975Z,7.85
2018-05-04T00:03:07.259Z,7.37
2018-05-04T00:05:35.577Z,7.62
2018-05-04T00:08:03.861Z,6.93
2018-05-04T00:10:32.175Z,6.40
2018-05-04T00:13:00.467Z,9.18
2018-05-04T00:15:28.783Z,6.45
2018-05-04T00:17:57.070Z,8.12
2018-05-04T00:20:25.390Z,12.10
2018-05-04T00:22:53.678Z,6.50
2018-05-04T00:25:22.000Z,8.77
2018-05-04T00:27:50.298Z,6.60
2018-05-04T00:30:18.610Z,7.62
2018-05-04T00:32:46.131Z,9.68
2018-05-04T00:35:14.447Z,8.52
2018-05-04T00:37:42.739Z,9.38
2018-05-04T00:40:11.055Z,10.87
2018-05-04T00:42:39.343Z,7.28
2018-05-04T00:45:07.666Z,7.65
2018-05-04T00:47:35.955Z,7.65
2018-05-04T00:50:04.271Z,7.57
2018-05-04T00:52:32.559Z,6.18
2018-05-04T00:55:00.107Z,8.35
2018-05-04T00:57:28.390Z,7.52
2018-05-04T00:59:56.699Z,6.15
2018-05-04T01:02:24.978Z,7.57
2018-05-04T01:04:53.288Z,9.05
2018-05-04T01:07:20.815Z,6.98
2018-05-04T01:09:49.099Z,6.97
2018-05-04T01:12:17.407Z,6.15
2018-05-04T01:14:45.695Z,7.98
2018-05-04T01:17:14.002Z,6.28
2018-05-04T01:19:42.286Z,7.92
2018-05-04T01:22:10.593Z,6.72
2018-05-04T01:24:38.874Z,6.18
2018-05-04T01:27:07.191Z,6.75
2018-05-04T01:29:35.470Z,7.00
2018-05-04T01:32:03.843Z,5.75
2018-05-04T01:34:32.130Z,6.43
2018-05-04T01:37:00.447Z,10.97
2018-05-04T01:39:28.730Z,6.30
2018-05-04T01:41:57.048Z,6.28
2018-05-04T01:44:25.331Z,7.28
2018-05-04T01:46:53.647Z,6.45
2018-05-04T01:49:21.939Z,7.73
2018-05-04T01:51:50.256Z,6.52
2018-05-04T01:54:18.543Z,9.33
2018-05-04T01:56:46.847Z,7.37
2018-05-04T01:59:15.127Z,6.82
2018-05-04T02:01:43.444Z,8.57
2018-05-04T02:04:11.730Z,6.38
2018-05-04T02:06:40.055Z,15.77
2018-05-04T02:09:08.352Z,21.02
2018-05-04T02:11:36.694Z,25.07
2018-05-04T02:14:04.212Z,12.18
2018-05-04T02:16:32.541Z,9.78
2018-05-04T02:19:00.830Z,10.43
2018-05-04T02:21:29.147Z,10.58
2018-05-04T02:23:57.434Z,13.38
2018-05-04T02:26:25.759Z,113.10
2018-05-04T02:28:54.055Z,52.87
2018-05-04T02:31:22.379Z,17.55
2018-05-04T02:33:50.672Z,15.07
2018-05-04T02:36:18.990Z,11.42
2018-05-04T02:38:47.287Z,33.30
2018-05-04T02:41:15.606Z,19.43
2018-05-04T02:43:43.894Z,15.83
2018-05-04T02:46:12.211Z,30.45
2018-05-04T02:48:40.507Z,18.43
2018-05-04T02:51:08.827Z,51.23
2018-05-04T02:53:36.355Z,48.87
2018-05-04T02:56:03.915Z,14.57
2018-05-04T02:58:32.212Z,22.92
2018-05-04T03:01:00.534Z,11.35
2018-05-04T03:03:28.823Z,19.05
2018-05-04T03:05:57.119Z,16.87
2018-05-04T03:08:25.440Z,10.55
2018-05-04T03:10:53.727Z,6.87
2018-05-04T03:13:22.043Z,7.72
2018-05-04T03:15:50.335Z,7.43
2018-05-04T03:18:18.652Z,7.33
2018-05-04T03:20:46.958Z,8.52
2018-05-04T03:23:15.271Z,6.58
2018-05-04T03:25:43.554Z,7.42
2018-05-04T03:28:11.874Z,7.67
2018-05-04T03:30:40.159Z,9.07
2018-05-04T03:33:08.469Z,7.90
2018-05-04T03:35:36.758Z,7.15
2018-05-04T03:38:05.072Z,6.82
2018-05-04T03:40:33.363Z,6.08
2018-05-04T03:43:01.689Z,9.53
2018-05-04T03:45:29.974Z,6.42
2018-05-04T03:47:58.290Z,6.98
2018-05-04T03:50:26.575Z,6.40
2018-05-04T03:52:54.901Z,6.17
2018-05-04T03:55:23.200Z,10.73
2018-05-04T03:58:02.658Z,6.25
2018-05-04T04:00:42.751Z,6.13
2018-05-04T04:03:22.980Z,10.00
2018-05-04T04:05:51.271Z,7.38
2018-05-04T04:08:19.581Z,8.82
2018-05-04T04:10:47.866Z,7.25
2018-05-04T04:13:16.179Z,6.68
2018-05-04T04:15:44.467Z,7.77
2018-05-04T04:18:12.779Z,6.27
2018-05-04T04:20:41.067Z,8.95
2018-05-04T04:23:09.375Z,6.38
2018-05-04T04:25:37.658Z,9.53
2018-05-04T04:28:06.008Z,9.97
2018-05-04T04:30:34.275Z,7.67
2018-05-04T04:33:02.594Z,6.83
2018-05-04T04:35:30.126Z,7.70
2018-05-04T04:37:58.446Z,10.10
2018-05-04T04:40:26.735Z,10.88
2018-05-04T04:42:55.063Z,6.73
2018-05-04T04:45:23.347Z,7.72
2018-05-04T04:47:51.684Z,7.68
2018-05-04T04:50:19.986Z,6.28
2018-05-04T04:52:48.307Z,6.38
2018-05-04T04:55:16.607Z,13.13
2018-05-04T04:57:44.938Z,6.37
2018-05-04T05:00:13.231Z,5.57
2018-05-04T05:02:41.557Z,6.15
2018-05-04T05:05:09.851Z,6.52
2018-05-04T05:07:38.174Z,9.67
2018-05-04T05:10:06.470Z,5.97
2018-05-04T05:12:34.790Z,5.74
2018-05-04T05:15:03.081Z,5.95
2018-05-04T05:17:31.398Z,8.26
2018-05-04T05:19:59.691Z,7.94
2018-05-04T05:22:28.015Z,6.62
2018-05-04T05:24:56.314Z,6.12
2018-05-04T05:27:24.639Z,5.60
2018-05-04T05:29:52.928Z,8.44
2018-05-04T05:32:21.258Z,7.56
2018-05-04T05:34:49.538Z,6.66
2018-05-04T05:37:17.829Z,7.70
2018-05-04T05:39:46.147Z,7.36
2018-05-04T05:42:14.434Z,8.74
2018-05-04T05:44:42.762Z,10.42
2018-05-04T05:47:11.083Z,28.84
2018-05-04T05:49:39.406Z,22.50
2018-05-04T05:52:07.700Z,14.82
2018-05-04T05:54:36.046Z,40.56
2018-05-04T05:57:04.351Z,15.88
2018-05-04T05:59:32.679Z,49.12
2018-05-04T06:02:00.975Z,26.00
2018-05-04T06:04:29.308Z,23.93
2018-05-04T06:06:57.626Z,18.56
2018-05-04T06:09:25.974Z,16.85
2018-05-04T06:11:54.279Z,13.94
2018-05-04T06:14:22.599Z,11.06
2018-05-04T06:16:50.903Z,10.52
2018-05-04T06:19:19.218Z,10.46
2018-05-04T06:21:47.518Z,10.70
2018-05-04T06:24:15.070Z,9.90
2018-05-04T06:26:43.366Z,9.38
2018-05-04T06:29:11.696Z,12.80
2018-05-04T06:31:39.995Z,10.30
2018-05-04T06:34:08.310Z,10.62
2018-05-04T06:36:36.611Z,11.00
2018-05-04T06:39:05.785Z,10.54
2018-05-04T06:41:34.079Z,12.86
2018-05-04T06:44:02.409Z,12.26
2018-05-04T06:46:30.716Z,10.88
2018-05-04T06:48:59.051Z,14.20
2018-05-04T06:51:27.362Z,9.02
2018-05-04T06:53:55.686Z,12.98
2018-05-04T06:56:23.986Z,10.90
2018-05-04T06:58:52.310Z,11.44
2018-05-04T07:01:20.605Z,15.60
2018-05-04T07:03:48.926Z,11.58
2018-05-04T07:06:17.216Z,11.82
2018-05-04T07:08:45.540Z,11.08
2018-05-04T07:11:13.865Z,10.68
2018-05-04T07:13:41.423Z,12.98
2018-05-04T07:16:09.720Z,10.22
2018-05-04T07:18:38.039Z,9.52
2018-05-04T07:21:06.333Z,10.60
2018-05-04T07:23:39.865Z,12.02
2018-05-04T07:26:08.264Z,8.20
2018-05-04T07:28:36.639Z,10.16
2018-05-04T07:31:04.903Z,11.74
2018-05-04T07:33:33.227Z,8.76
2018-05-04T07:36:01.565Z,7.72
2018-05-04T07:38:30.802Z,8.76
2018-05-04T07:40:59.102Z,11.48
2018-05-04T07:43:27.392Z,8.04
2018-05-04T07:45:55.708Z,7.70
2018-05-04T07:48:24.003Z,8.16
2018-05-04T07:50:52.343Z,10.60
2018-05-04T07:53:20.634Z,9.18
2018-05-04T07:55:48.952Z,8.74
2018-05-04T07:58:17.245Z,9.90
2018-05-04T08:00:45.566Z,6.00
2018-05-04T08:03:13.858Z,7.62
2018-05-04T08:05:42.170Z,7.96
2018-05-04T08:08:10.459Z,7.72
2018-05-04T08:10:38.783Z,10.26
2018-05-04T08:13:07.076Z,6.22
2018-05-04T08:15:35.394Z,9.80
2018-05-04T08:18:03.690Z,7.90
2018-05-04T08:20:32.015Z,12.82
2018-05-04T08:23:00.311Z,7.74
2018-05-04T08:25:27.863Z,9.00
2018-05-04T08:27:56.151Z,7.00
2018-05-04T08:30:24.470Z,9.46
2018-05-04T08:32:52.771Z,10.80
2018-05-04T08:35:21.221Z,8.20
2018-05-04T08:37:48.626Z,9.08
2018-05-04T08:40:16.942Z,7.80
2018-05-04T08:42:45.235Z,10.52
2018-05-04T08:45:13.558Z,10.52
2018-05-04T08:47:41.848Z,8.02
2018-05-04T08:50:10.175Z,7.50
2018-05-04T08:52:38.467Z,7.58
2018-05-04T08:55:06.784Z,7.40
2018-05-04T08:57:34.329Z,7.38
2018-05-04T09:00:02.644Z,10.70
2018-05-04T09:02:30.943Z,9.46
2018-05-04T09:04:59.269Z,11.98
2018-05-04T09:07:27.568Z,7.16
2018-05-04T09:09:55.894Z,13.50
2018-05-04T09:12:24.183Z,8.20
2018-05-04T09:14:52.503Z,10.16
2018-05-04T09:17:20.799Z,7.32
2018-05-04T09:19:50.077Z,12.00
2018-05-04T09:22:18.358Z,11.92
2018-05-04T09:24:46.671Z,7.36
2018-05-04T09:27:14.962Z,7.90
2018-05-04T09:29:43.274Z,7.12
2018-05-04T09:32:11.567Z,8.90
2018-05-04T09:34:39.887Z,6.80
2018-05-04T09:37:08.178Z,11.16
2018-05-04T09:39:36.466Z,8.04
2018-05-04T09:42:04.791Z,7.04
2018-05-04T09:44:33.083Z,13.02
2018-05-04T09:47:01.399Z,9.56
2018-05-04T09:49:29.688Z,8.14
2018-05-04T09:51:57.999Z,9.48
2018-05-04T09:54:26.317Z,12.22
2018-05-04T09:56:54.639Z,8.56
2018-05-04T09:59:22.926Z,9.20
2018-05-04T10:01:51.244Z,8.36
2018-05-04T10:04:19.542Z,9.74
2018-05-04T10:06:47.859Z,7.50
2018-05-04T10:09:16.240Z,8.34
2018-05-04T10:11:44.474Z,8.30
2018-05-04T10:14:12.766Z,10.02
2018-05-04T10:16:41.079Z,9.44
2018-05-04T10:19:09.368Z,8.56
2018-05-04T10:21:37.690Z,8.14
2018-05-04T10:24:05.982Z,7.40
2018-05-04T10:26:34.295Z,9.54
2018-05-04T10:29:02.583Z,7.60
2018-05-04T10:31:30.972Z,9.60
2018-05-04T10:33:58.438Z,10.30
2018-05-04T10:36:26.754Z,9.30
2018-05-04T10:38:55.159Z,9.14
2018-05-04T10:41:23.387Z,7.50
2018-05-04T10:43:51.674Z,7.64
2018-05-04T10:46:19.991Z,9.34
2018-05-04T10:48:48.291Z,8.28
2018-05-04T10:51:16.613Z,8.70
2018-05-04T10:53:44.907Z,7.90
2018-05-04T10:56:13.231Z,7.98
2018-05-04T10:58:41.527Z,8.38
2018-05-04T11:01:09.856Z,10.04
2018-05-04T11:03:38.157Z,11.30
2018-05-04T11:06:05.711Z,8.86
2018-05-04T11:08:34.007Z,12.98
2018-05-04T11:11:02.382Z,14.36
2018-05-04T11:13:30.638Z,20.62
2018-05-04T11:15:58.191Z,11.22
2018-05-04T11:18:26.487Z,12.04
2018-05-04T11:20:54.806Z,11.52
2018-05-04T11:23:23.105Z,9.50
2018-05-04T11:25:51.451Z,10.60
2018-05-04T11:28:19.815Z,10.96
2018-05-04T11:30:48.203Z,10.84
2018-05-04T11:33:16.572Z,9.84
2018-05-04T11:35:44.964Z,13.70
2018-05-04T11:38:13.403Z,10.68
2018-05-04T11:40:41.829Z,9.06
2018-05-04T11:43:10.249Z,12.72
2018-05-04T11:45:38.602Z,10.94
2018-05-04T11:48:06.995Z,12.72
2018-05-04T11:50:35.459Z,15.48
2018-05-04T11:53:03.962Z,10.94
2018-05-04T11:55:32.360Z,11.74
2018-05-04T11:58:00.839Z,9.50
2018-05-04T12:00:29.242Z,13.96
2018-05-04T12:02:57.646Z,11.72
2018-05-04T12:05:26.091Z,12.52
2018-05-04T12:07:54.577Z,13.48
2018-05-04T12:10:23.056Z,16.62
2018-05-04T12:12:51.475Z,10.70
2018-05-04T12:15:19.917Z,11.38
2018-05-04T12:17:47.589Z,11.14
2018-05-04T12:20:19.514Z,15.82
2018-05-04T12:22:48.028Z,13.22
2018-05-04T12:25:15.555Z,13.40
2018-05-04T12:27:43.870Z,16.32
2018-05-04T12:30:12.170Z,12.68
2018-05-04T12:32:44.636Z,11.46
2018-05-04T12:35:16.269Z,12.28
2018-05-04T12:37:49.341Z,16.76
2018-05-04T12:40:21.550Z,14.90
2018-05-04T12:42:54.964Z,14.72
2018-05-04T12:45:27.808Z,16.20
2018-05-04T12:47:57.827Z,16.94
2018-05-04T12:50:27.580Z,15.78
2018-05-04T12:52:59.759Z,12.46
2018-05-04T12:55:28.488Z,13.76
2018-05-04T12:57:56.895Z,17.70
2018-05-04T13:00:25.362Z,14.16
2018-05-04T13:02:53.910Z,13.88
2018-05-04T13:05:22.327Z,13.24
2018-05-04T13:07:50.735Z,17.98
2018-05-04T13:10:19.113Z,11.66
2018-05-04T13:12:47.579Z,13.58
2018-05-04T13:15:15.942Z,13.86
2018-05-04T13:17:44.419Z,12.74
2018-05-04T13:20:12.853Z,12.88
2018-05-04T13:22:41.266Z,11.40
2018-05-04T13:25:09.703Z,11.30
2018-05-04T13:27:38.135Z,13.38
2018-05-04T13:30:06.566Z,12.60
2018-05-04T13:32:35.150Z,11.58
2018-05-04T13:35:03.591Z,12.52
2018-05-04T13:37:32.065Z,10.62
2018-05-04T13:40:00.494Z,14.06
2018-05-04T13:42:29.071Z,13.56
2018-05-04T13:44:57.481Z,12.84
2018-05-04T13:47:25.938Z,11.24
2018-05-04T13:49:54.339Z,13.72
2018-05-04T13:52:22.831Z,12.64
2018-05-04T13:54:51.290Z,11.44
2018-05-04T13:57:19.730Z,12.72
2018-05-04T13:59:48.202Z,11.08
2018-05-04T14:02:16.544Z,9.88
2018-05-04T14:04:44.839Z,12.36
2018-05-04T14:07:13.138Z,11.44
2018-05-04T14:09:41.459Z,11.58
2018-05-04T14:12:09.755Z,12.00
2018-05-04T14:14:38.074Z,16.60
2018-05-04T14:17:06.375Z,13.32
2018-05-04T14:19:34.695Z,12.80
2018-05-04T14:22:02.990Z,12.82
2018-05-04T14:24:31.314Z,18.62
2018-05-04T14:26:59.614Z,14.30
2018-05-04T14:29:27.935Z,14.72
2018-05-04T14:31:56.249Z,15.60
2018-05-04T14:34:24.581Z,16.48
2018-05-04T14:36:52.883Z,13.58
2018-05-04T14:39:21.207Z,14.14
2018-05-04T14:41:49.501Z,16.80
2018-05-04T14:44:17.815Z,12.40
2018-05-04T14:46:46.110Z,11.76
2018-05-04T14:49:14.444Z,14.44
2018-05-04T14:51:42.744Z,14.90
2018-05-04T14:54:11.071Z,14.84
2018-05-04T14:56:39.368Z,12.32
2018-05-04T14:59:07.701Z,12.60
2018-05-04T15:01:35.994Z,14.64
2018-05-04T15:04:04.341Z,21.16
2018-05-04T15:06:32.627Z,14.42
2018-05-04T15:09:00.956Z,13.64
2018-05-04T15:11:29.251Z,14.72
2018-05-04T15:13:57.574Z,13.88
2018-05-04T15:16:25.868Z,11.72
2018-05-04T15:18:54.211Z,11.64
2018-05-04T15:21:22.507Z,13.82
2018-05-04T15:23:50.830Z,12.18
2018-05-04T15:26:19.130Z,13.88
2018-05-04T15:28:47.446Z,10.82
2018-05-04T15:31:15.739Z,13.18
2018-05-04T15:33:44.058Z,12.92
2018-05-04T15:36:12.354Z,12.02
2018-05-04T15:38:40.712Z,14.04
2018-05-04T15:41:08.991Z,13.52
2018-05-04T15:43:36.550Z,14.64
2018-05-04T15:46:04.934Z,12.24
2018-05-04T15:48:38.791Z,12.52
2018-05-04T15:51:12.651Z,10.82
2018-05-04T15:53:40.966Z,11.88
2018-05-04T15:56:09.272Z,14.70
2018-05-04T15:58:37.587Z,11.74
2018-05-04T16:01:05.879Z,13.60
2018-05-04T16:03:33.439Z,14.50
2018-05-04T16:06:01.737Z,14.10
2018-05-04T16:08:30.054Z,13.64
2018-05-04T16:10:58.342Z,10.64
2018-05-04T16:13:26.634Z,12.78
2018-05-04T16:15:54.196Z,10.28
2018-05-04T16:18:22.494Z,11.82
2018-05-04T16:20:50.815Z,11.42
2018-05-04T16:23:19.111Z,11.12
2018-05-04T16:25:47.438Z,14.04
2018-05-04T16:28:14.966Z,11.78
2018-05-04T16:30:43.285Z,11.12
2018-05-04T16:33:11.585Z,13.66
2018-05-04T16:35:39.911Z,11.16
2018-05-04T16:38:08.216Z,13.96
2018-05-04T16:40:36.534Z,13.36
2018-05-04T16:43:04.823Z,12.66
2018-05-04T16:45:33.186Z,11.14
2018-05-04T16:48:07.050Z,11.12
2018-05-04T16:50:35.465Z,13.72
2018-05-04T16:53:03.683Z,14.02
2018-05-04T16:55:32.006Z,11.86
2018-05-04T16:58:00.309Z,10.90
2018-05-04T17:00:28.626Z,14.02
2018-05-04T17:02:56.920Z,13.30
2018-05-04T17:05:25.248Z,13.56
2018-05-04T17:07:53.538Z,13.76
2018-05-04T17:10:21.863Z,17.40
2018-05-04T17:12:50.156Z,12.46
2018-05-04T17:15:17.720Z,10.96
2018-05-04T17:17:46.016Z,11.56
2018-05-04T17:20:14.343Z,13.38
2018-05-04T17:22:42.647Z,13.92
2018-05-04T17:25:10.984Z,12.72
2018-05-04T17:27:39.285Z,10.78
2018-05-04T17:30:07.623Z,9.62
2018-05-04T17:32:35.914Z,10.80
2018-05-04T17:35:04.235Z,12.16
2018-05-04T17:37:32.531Z,11.38
2018-05-04T17:40:00.842Z,9.92
2018-05-04T17:42:29.134Z,10.76
2018-05-04T17:44:57.460Z,12.52
2018-05-04T17:47:25.804Z,10.28
2018-05-04T17:49:54.119Z,10.22
2018-05-04T17:52:22.410Z,13.34
2018-05-04T17:54:50.731Z,8.46
2018-05-04T17:57:19.043Z,9.14
2018-05-04T17:59:47.375Z,9.72
2018-05-04T18:02:15.667Z,9.98
2018-05-04T18:04:43.993Z,12.74
2018-05-04T18:07:12.282Z,9.96
2018-05-04T18:09:40.602Z,9.44
2018-05-04T18:12:08.895Z,10.60
2018-05-04T18:14:37.174Z,9.92
2018-05-04T18:17:05.490Z,9.52
2018-05-04T18:19:34.704Z,9.26
2018-05-04T18:22:03.024Z,8.66
2018-05-04T18:24:31.319Z,10.28
2018-05-04T18:26:58.884Z,10.68
2018-05-04T18:29:27.183Z,11.12
2018-05-04T18:31:55.504Z,11.94
2018-05-04T18:34:23.803Z,8.14
2018-05-04T18:36:52.126Z,8.60
2018-05-04T18:39:20.415Z,10.52
2018-05-04T18:41:48.739Z,9.64
2018-05-04T18:44:17.030Z,15.02
2018-05-04T18:46:45.357Z,9.10
2018-05-04T18:49:13.646Z,9.24
2018-05-04T18:51:41.962Z,9.66
2018-05-04T18:54:09.478Z,11.56
2018-05-04T18:56:37.804Z,19.14
2018-05-04T18:59:06.114Z,16.04
2018-05-04T19:01:34.455Z,18.12
2018-05-04T19:04:02.751Z,10.32
2018-05-04T19:06:31.071Z,18.64
2018-05-04T19:08:59.374Z,13.14
2018-05-04T19:11:27.701Z,28.02
2018-05-04T19:13:55.990Z,13.50
2018-05-04T19:16:24.307Z,17.48
2018-05-04T19:18:51.832Z,11.42
2018-05-04T19:21:20.163Z,19.48
2018-05-04T19:23:48.463Z,17.00
2018-05-04T19:26:16.794Z,18.44
2018-05-04T19:28:45.091Z,14.64
2018-05-04T19:31:13.407Z,9.64
2018-05-04T19:33:41.702Z,7.56
2018-05-04T19:36:10.011Z,7.36
2018-05-04T19:38:38.305Z,8.40
2018-05-04T19:41:06.622Z,8.68
2018-05-04T19:43:34.921Z,9.56
2018-05-04T19:46:03.259Z,7.38
2018-05-04T19:48:31.560Z,8.10
2018-05-04T19:50:59.881Z,6.02
2018-05-04T19:53:28.166Z,8.44
2018-05-04T19:55:56.498Z,7.18
2018-05-04T19:58:24.799Z,7.52
2018-05-04T20:00:53.123Z,10.00
2018-05-04T20:03:21.422Z,6.52
2018-05-04T20:05:49.746Z,7.54
2018-05-04T20:08:18.044Z,9.64
2018-05-04T20:10:46.383Z,7.52
2018-05-04T20:13:14.687Z,10.74
2018-05-04T20:15:42.995Z,8.14
2018-05-04T20:18:11.322Z,11.46
2018-05-04T20:20:39.623Z,25.12
2018-05-04T20:23:07.950Z,45.62
2018-05-04T20:25:36.266Z,35.48
2018-05-04T20:28:04.590Z,27.36
2018-05-04T20:30:32.944Z,40.46
2018-05-04T20:33:01.243Z,24.68
2018-05-04T20:35:29.549Z,18.02
2018-05-04T20:37:57.872Z,18.24
2018-05-04T20:40:26.167Z,27.58
2018-05-04T20:42:54.498Z,26.00
2018-05-04T20:45:22.805Z,34.06
2018-05-04T20:47:51.134Z,25.78
2018-05-04T20:50:19.437Z,44.62
2018-05-04T20:52:47.787Z,33.14
2018-05-04T20:55:16.087Z,28.14
2018-05-04T20:57:44.427Z,15.58
2018-05-04T21:00:12.727Z,16.36
2018-05-04T21:02:41.060Z,17.02
2018-05-04T21:05:09.367Z,19.12
2018-05-04T21:07:37.699Z,17.68
2018-05-04T21:10:05.997Z,17.34
2018-05-04T21:12:34.327Z,12.00
2018-05-04T21:15:02.631Z,15.96
2018-05-04T21:17:30.972Z,11.90
2018-05-04T21:19:59.311Z,12.46
2018-05-04T21:22:27.631Z,11.28
2018-05-04T21:24:55.926Z,12.02
2018-05-04T21:27:24.259Z,11.92
2018-05-04T21:29:52.563Z,11.16
2018-05-04T21:32:20.891Z,15.06
2018-05-04T21:34:49.187Z,12.54
2018-05-04T21:37:17.519Z,11.54
2018-05-04T21:39:45.822Z,14.32
2018-05-04T21:42:14.156Z,16.42
2018-05-04T21:44:42.501Z,16.30
2018-05-04T21:47:10.800Z,18.62
2018-05-04T21:49:39.099Z,15.30
2018-05-04T21:52:07.426Z,37.04
2018-05-04T21:54:35.718Z,29.92
2018-05-04T21:57:04.055Z,39.22
2018-05-04T21:59:32.171Z,21.44
2018-05-04T22:02:00.503Z,34.28
2018-05-04T22:04:28.808Z,17.00
2018-05-04T22:06:56.367Z,12.90
2018-05-04T22:09:24.666Z,12.74
2018-05-04T22:11:52.971Z,14.04
2018-05-04T22:14:21.301Z,13.82
2018-05-04T22:16:49.592Z,28.24
2018-05-04T22:19:17.915Z,24.54
2018-05-04T22:21:46.227Z,27.42
2018-05-04T22:24:14.604Z,27.72
2018-05-04T22:26:42.883Z,28.32
2018-05-04T22:29:10.442Z,30.16
2018-05-04T22:31:38.739Z,40.96
2018-05-04T22:34:07.065Z,34.58
2018-05-04T22:36:35.362Z,40.86
2018-05-04T22:39:03.692Z,37.02
2018-05-04T22:41:31.988Z,25.92
2018-05-04T22:44:00.316Z,26.50
2018-05-04T22:46:28.604Z,21.78
2018-05-04T22:48:56.927Z,20.28
2018-05-04T22:51:25.218Z,19.40
2018-05-04T22:53:53.542Z,18.44
2018-05-04T22:56:21.834Z,14.38
2018-05-04T22:58:50.159Z,16.04
2018-05-04T23:01:18.459Z,17.12
2018-05-04T23:03:46.779Z,13.62
2018-05-04T23:06:15.084Z,15.64
2018-05-04T23:08:43.403Z,12.74
2018-05-04T23:11:11.709Z,12.16
2018-05-04T23:13:40.033Z,14.22
2018-05-04T23:16:08.327Z,13.30
2018-05-04T23:18:36.650Z,13.92
2018-05-04T23:21:04.987Z,11.36
2018-05-04T23:23:33.274Z,13.02
2018-05-04T23:26:01.566Z,13.06
2018-05-04T23:28:29.895Z,14.28
2018-05-04T23:30:58.186Z,14.32
2018-05-04T23:33:26.521Z,11.90
2018-05-04T23:35:54.815Z,12.54
2018-05-04T23:38:23.151Z,12.24
2018-05-04T23:40:51.451Z,13.62
2018-05-04T23:43:19.776Z,14.22
2018-05-04T23:45:48.071Z,14.12
2018-05-04T23:48:16.394Z,12.12
2018-05-04T23:50:44.698Z,15.06
2018-05-04T23:53:13.056Z,11.42
2018-05-04T23:55:40.584Z,11.24
2018-05-04T23:58:08.910Z,15.42
